createdAt,value
2022-09-23T00:01:18.999Z,10.21
2022-09-23T00:03:46.409Z,10.11
2022-09-23T00:06:16.862Z,10.07
2022-09-23T00:08:44.301Z,10.21
2022-09-23T00:11:14.282Z,10.16
2022-09-23T00:13:43.238Z,10.19
2022-09-23T00:16:13.857Z,10.24
2022-09-23T00:18:42.023Z,10.19
2022-09-23T00:21:12.349Z,10.08
2022-09-23T00:23:40.639Z,10.08
2022-09-23T00:26:09.679Z,9.75
2022-09-23T00:28:36.987Z,9.68
2022-09-23T00:31:05.837Z,9.82
2022-09-23T00:33:33.244Z,9.78
2022-09-23T00:36:02.052Z,9.93
2022-09-23T00:38:29.831Z,9.93
2022-09-23T00:40:57.324Z,9.83
2022-09-23T00:43:47.397Z,9.88
2022-09-23T00:46:19.654Z,9.74
2022-09-23T00:48:50.863Z,9.86
2022-09-23T00:51:23.449Z,9.72
2022-09-23T00:53:51.804Z,9.86
2022-09-23T00:56:21.160Z,9.67
2022-09-23T00:58:49.684Z,9.87
2022-09-23T01:01:17.054Z,9.78
2022-09-23T01:03:46.665Z,9.74
2022-09-23T01:06:13.772Z,9.49
2022-09-23T01:08:44.295Z,9.35
2022-09-23T01:11:23.201Z,9.60
2022-09-23T01:14:10.559Z,9.61
2022-09-23T01:16:42.247Z,9.60
2022-09-23T01:19:11.730Z,9.54
2022-09-23T01:21:53.151Z,9.39
2022-09-23T01:24:41.661Z,9.48
2022-09-23T01:27:41.454Z,9.42
2022-09-23T01:30:11.627Z,9.17
2022-09-23T01:32:53.777Z,9.19
2022-09-23T01:35:37.890Z,8.84
2022-09-23T01:38:10.537Z,9.07
2022-09-23T01:40:53.830Z,8.86
2022-09-23T01:43:47.219Z,8.48
2022-09-23T01:46:39.949Z,8.72
2022-09-23T01:49:13.931Z,8.66
2022-09-23T01:51:46.852Z,8.63
2022-09-23T01:54:22.621Z,8.54
2022-09-23T01:57:04.555Z,8.53
2022-09-23T01:59:43.405Z,8.52
2022-09-23T02:02:22.097Z,8.10
2022-09-23T02:05:09.769Z,8.26
2022-09-23T02:08:05.295Z,8.30
2022-09-23T02:10:37.187Z,8.24
2022-09-23T02:13:10.206Z,8.31
2022-09-23T02:15:50.086Z,8.13
2022-09-23T02:18:38.721Z,8.22
2022-09-23T02:21:09.662Z,8.33
2022-09-23T02:23:42.589Z,8.34
2022-09-23T02:26:28.265Z,8.34
2022-09-23T02:29:27.754Z,8.33
2022-09-23T02:32:27.154Z,8.32
2022-09-23T02:35:12.510Z,8.30
2022-09-23T02:38:05.519Z,8.24
2022-09-23T02:40:51.062Z,8.02
2022-09-23T02:43:28.175Z,8.28
2022-09-23T02:45:56.250Z,8.03
2022-09-23T02:48:29.471Z,8.08
2022-09-23T02:50:57.866Z,8.29
2022-09-23T02:53:25.643Z,8.04
2022-09-23T02:55:52.509Z,8.03
2022-09-23T02:58:19.573Z,7.70
2022-09-23T03:00:50.304Z,8.25
2022-09-23T03:03:55.987Z,8.25
2022-09-23T03:06:38.344Z,8.02
2022-09-23T03:09:15.461Z,8.12
2022-09-23T03:11:48.765Z,7.97
2022-09-23T03:15:04.039Z,8.15
2022-09-23T03:17:44.158Z,7.99
2022-09-23T03:20:22.731Z,7.97
2022-09-23T03:22:55.149Z,7.80
2022-09-23T03:25:25.557Z,7.86
2022-09-23T03:27:57.672Z,8.03
2022-09-23T03:30:25.417Z,7.96
2022-09-23T03:32:54.791Z,7.55
2022-09-23T03:35:24.883Z,7.93
2022-09-23T03:38:07.257Z,7.86
2022-09-23T03:40:43.126Z,7.77
2022-09-23T03:43:14.368Z,7.72
2022-09-23T03:45:42.772Z,7.80
2022-09-23T03:48:09.805Z,7.93
2022-09-23T03:50:36.757Z,7.83
2022-09-23T03:53:03.691Z,7.94
2022-09-23T03:55:32.282Z,7.91
2022-09-23T03:58:00.322Z,7.86
2022-09-23T04:00:27.840Z,7.72
2022-09-23T04:02:54.910Z,7.58
2022-09-23T04:05:21.985Z,7.63
2022-09-23T04:07:49.601Z,7.57
2022-09-23T04:10:16.648Z,7.48
2022-09-23T04:12:43.619Z,7.38
2022-09-23T04:15:11.190Z,7.76
2022-09-23T04:17:38.125Z,7.64
2022-09-23T04:20:05.448Z,7.43
2022-09-23T04:22:34.107Z,7.64
2022-09-23T04:25:01.041Z,7.65
2022-09-23T04:27:28.044Z,7.53
2022-09-23T04:29:55.020Z,7.69
2022-09-23T04:32:21.912Z,7.44
2022-09-23T04:34:48.824Z,7.62
2022-09-23T04:37:15.833Z,7.65
2022-09-23T04:39:43.374Z,7.38
2022-09-23T04:42:10.275Z,7.67
2022-09-23T04:44:39.025Z,7.37
2022-09-23T04:47:06.195Z,7.52
2022-09-23T04:49:33.798Z,7.60
2022-09-23T04:52:01.056Z,7.51
2022-09-23T04:54:28.158Z,7.71
2022-09-23T04:56:55.164Z,7.43
2022-09-23T04:59:22.157Z,7.73
2022-09-23T05:01:49.343Z,7.69
2022-09-23T05:04:16.317Z,7.79
2022-09-23T05:06:46.550Z,7.79
2022-09-23T05:09:17.838Z,7.79
2022-09-23T05:11:45.624Z,7.82
2022-09-23T05:14:13.230Z,7.68
2022-09-23T05:16:40.782Z,7.55
2022-09-23T05:19:08.056Z,7.86
2022-09-23T05:21:35.312Z,7.88
2022-09-23T05:24:02.623Z,7.79
2022-09-23T05:26:32.235Z,7.92
2022-09-23T05:29:00.194Z,7.91
2022-09-23T05:31:29.058Z,7.93
2022-09-23T05:34:04.829Z,7.90
2022-09-23T05:36:37.879Z,7.95
2022-09-23T05:39:07.284Z,7.97
2022-09-23T05:41:34.562Z,7.84
2022-09-23T05:44:01.926Z,8.03
2022-09-23T05:46:30.892Z,8.01
2022-09-23T05:49:02.444Z,7.89
2022-09-23T05:51:31.410Z,8.18
2022-09-23T05:53:59.334Z,8.15
2022-09-23T05:56:28.703Z,8.19
2022-09-23T05:58:57.745Z,8.30
2022-09-23T06:01:33.965Z,8.23
2022-09-23T06:04:03.216Z,8.34
2022-09-23T06:06:41.749Z,8.38
2022-09-23T06:09:13.623Z,8.41
2022-09-23T06:11:41.374Z,8.06
2022-09-23T06:14:12.266Z,8.39
2022-09-23T06:16:39.312Z,8.34
2022-09-23T06:19:07.038Z,8.42
2022-09-23T06:21:39.486Z,8.56
2022-09-23T06:24:07.742Z,8.52
2022-09-23T06:26:37.696Z,8.64
2022-09-23T06:29:10.275Z,8.49
2022-09-23T06:31:37.468Z,8.68
2022-09-23T06:34:11.955Z,8.77
2022-09-23T06:36:44.488Z,8.72
2022-09-23T06:39:14.270Z,8.85
2022-09-23T06:41:41.337Z,8.89
2022-09-23T06:44:12.998Z,8.97
2022-09-23T06:46:40.109Z,8.91
2022-09-23T06:49:07.415Z,9.08
2022-09-23T06:51:34.580Z,9.13
2022-09-23T06:54:01.572Z,9.29
2022-09-23T06:56:28.625Z,9.14
2022-09-23T06:58:55.800Z,9.51
2022-09-23T07:01:23.454Z,9.61
2022-09-23T07:03:50.639Z,9.43
2022-09-23T07:06:20.376Z,9.32
2022-09-23T07:08:48.565Z,9.49
2022-09-23T07:11:16.217Z,9.56
2022-09-23T07:13:43.204Z,9.81
2022-09-23T07:16:11.297Z,9.85
2022-09-23T07:18:39.075Z,9.71
2022-09-23T07:21:15.816Z,9.89
2022-09-23T07:23:48.326Z,9.94
2022-09-23T07:26:16.961Z,9.86
2022-09-23T07:28:44.280Z,9.84
2022-09-23T07:31:13.906Z,10.01
2022-09-23T07:33:44.301Z,9.76
2022-09-23T07:36:14.783Z,10.09
2022-09-23T07:38:45.403Z,9.92
2022-09-23T07:41:15.133Z,10.03
2022-09-23T07:43:42.124Z,10.32
2022-09-23T07:46:12.137Z,9.87
2022-09-23T07:48:39.405Z,10.04
2022-09-23T07:51:12.550Z,10.36
2022-09-23T07:53:39.896Z,10.36
2022-09-23T07:56:07.058Z,10.48
2022-09-23T07:58:35.108Z,10.49
2022-09-23T08:01:05.011Z,10.58
2022-09-23T08:03:32.248Z,10.33
2022-09-23T08:06:11.340Z,10.68
2022-09-23T08:08:40.813Z,10.72
2022-09-23T08:11:10.351Z,10.72
2022-09-23T08:13:37.687Z,10.73
2022-09-23T08:16:04.824Z,10.60
2022-09-23T08:18:31.824Z,10.40
2022-09-23T08:20:59.271Z,10.69
2022-09-23T08:23:26.376Z,10.87
2022-09-23T08:26:02.359Z,10.50
2022-09-23T08:28:29.711Z,10.68
2022-09-23T08:30:56.739Z,11.03
2022-09-23T08:33:24.223Z,11.18
2022-09-23T08:35:52.354Z,11.12
2022-09-23T08:38:20.260Z,11.42
2022-09-23T08:40:49.642Z,11.20
2022-09-23T08:43:27.202Z,11.53
2022-09-23T08:45:57.557Z,11.32
2022-09-23T08:48:46.795Z,11.80
2022-09-23T08:51:29.521Z,11.74
2022-09-23T08:53:58.359Z,11.79
2022-09-23T08:56:25.478Z,11.69
2022-09-23T08:58:55.418Z,11.82
2022-09-23T09:01:45.808Z,11.79
2022-09-23T09:04:17.662Z,11.71
2022-09-23T09:06:52.981Z,11.73
2022-09-23T09:09:26.476Z,11.78
2022-09-23T09:12:03.596Z,11.65
2022-09-23T09:14:37.131Z,11.71
2022-09-23T09:17:24.773Z,11.60
2022-09-23T09:19:55.409Z,11.64
2022-09-23T09:22:48.821Z,11.57
2022-09-23T09:25:53.218Z,11.34
2022-09-23T09:28:43.744Z,11.27
2022-09-23T09:31:29.336Z,11.20
2022-09-23T09:34:06.805Z,11.11
2022-09-23T09:36:45.196Z,10.96
2022-09-23T09:39:14.722Z,10.93
2022-09-23T09:41:50.679Z,10.33
2022-09-23T09:44:24.254Z,10.67
2022-09-23T09:46:54.622Z,10.54
2022-09-23T09:49:46.942Z,10.77
2022-09-23T09:52:21.336Z,10.53
2022-09-23T09:54:49.866Z,10.70
2022-09-23T09:57:32.073Z,10.61
2022-09-23T10:00:25.036Z,10.43
2022-09-23T10:03:15.152Z,10.57
2022-09-23T10:05:45.240Z,10.64
2022-09-23T10:08:35.389Z,10.32
2022-09-23T10:11:09.560Z,10.58
2022-09-23T10:13:37.976Z,10.58
2022-09-23T10:16:05.685Z,10.74
2022-09-23T10:18:56.852Z,10.78
2022-09-23T10:21:27.929Z,10.83
2022-09-23T10:24:01.450Z,10.74
2022-09-23T10:26:32.909Z,11.04
2022-09-23T10:29:29.419Z,11.05
2022-09-23T10:32:36.539Z,11.17
2022-09-23T10:35:09.396Z,11.21
2022-09-23T10:37:40.011Z,11.36
2022-09-23T10:40:36.279Z,11.32
2022-09-23T10:44:01.102Z,11.40
2022-09-23T10:46:38.424Z,11.66
2022-09-23T10:49:10.232Z,11.73
2022-09-23T10:51:44.174Z,11.78
2022-09-23T10:54:29.030Z,11.86
2022-09-23T10:57:21.580Z,11.57
2022-09-23T11:00:07.613Z,11.52
2022-09-23T11:02:54.146Z,11.70
2022-09-23T11:05:35.182Z,11.72
2022-09-23T11:08:22.371Z,11.61
2022-09-23T11:10:59.616Z,11.64
2022-09-23T11:13:29.240Z,11.84
2022-09-23T11:16:05.269Z,11.92
2022-09-23T11:18:44.021Z,11.99
2022-09-23T11:21:14.352Z,11.89
2022-09-23T11:23:54.402Z,12.09
2022-09-23T11:26:25.951Z,12.18
2022-09-23T11:28:57.526Z,12.24
2022-09-23T11:31:59.923Z,12.33
2022-09-23T11:34:55.100Z,12.50
2022-09-23T11:37:30.715Z,12.67
2022-09-23T11:40:24.133Z,12.81
2022-09-23T11:43:07.599Z,12.90
2022-09-23T11:45:40.762Z,12.86
2022-09-23T11:48:41.671Z,13.09
2022-09-23T11:51:22.226Z,13.23
2022-09-23T11:53:55.345Z,13.13
2022-09-23T11:56:35.357Z,13.10
2022-09-23T11:59:05.733Z,13.51
2022-09-23T12:01:45.567Z,13.57
2022-09-23T12:04:30.175Z,13.66
2022-09-23T12:07:09.379Z,13.54
2022-09-23T12:09:58.111Z,13.49
2022-09-23T12:12:54.948Z,13.95
2022-09-23T12:15:34.696Z,14.01
2022-09-23T12:18:23.495Z,14.09
2022-09-23T12:21:08.101Z,14.17
2022-09-23T12:24:19.030Z,14.24
2022-09-23T12:26:53.469Z,14.25
2022-09-23T12:29:21.091Z,14.13
2022-09-23T12:31:49.883Z,14.19
2022-09-23T12:34:39.934Z,14.38
2022-09-23T12:37:07.075Z,14.28
2022-09-23T12:39:37.442Z,14.00
2022-09-23T12:42:17.418Z,14.22
2022-09-23T12:44:47.590Z,14.02
2022-09-23T12:47:14.511Z,14.19
2022-09-23T12:49:42.998Z,13.88
2022-09-23T12:52:12.879Z,14.19
2022-09-23T12:54:41.359Z,14.14
2022-09-23T12:57:36.202Z,14.19
2022-09-23T13:00:18.112Z,14.30
2022-09-23T13:03:08.122Z,14.21
2022-09-23T13:06:05.761Z,14.35
2022-09-23T13:08:37.811Z,14.36
2022-09-23T13:11:13.450Z,14.41
2022-09-23T13:13:43.659Z,14.37
2022-09-23T13:16:31.132Z,14.63
2022-09-23T13:19:03.800Z,14.38
2022-09-23T13:21:42.636Z,14.63
2022-09-23T13:24:25.144Z,14.63
2022-09-23T13:27:18.042Z,14.62
2022-09-23T13:30:20.249Z,14.41
2022-09-23T13:33:14.399Z,14.54
2022-09-23T13:35:48.544Z,14.38
2022-09-23T13:38:28.262Z,14.41
2022-09-23T13:41:08.098Z,14.23
2022-09-23T13:43:41.675Z,14.45
2022-09-23T13:46:14.120Z,14.15
2022-09-23T13:48:45.401Z,14.02
2022-09-23T13:51:24.968Z,14.30
2022-09-23T13:53:56.867Z,13.72
2022-09-23T13:56:25.832Z,13.62
2022-09-23T13:58:53.253Z,13.86
2022-09-23T14:01:29.626Z,13.75
2022-09-23T14:03:56.611Z,13.46
2022-09-23T14:06:23.879Z,13.56
2022-09-23T14:08:51.307Z,13.32
2022-09-23T14:11:20.673Z,13.54
2022-09-23T14:13:51.227Z,13.61
2022-09-23T14:16:19.732Z,13.25
2022-09-23T14:18:55.373Z,13.62
2022-09-23T14:21:37.176Z,13.68
2022-09-23T14:24:30.294Z,13.19
2022-09-23T14:27:21.102Z,13.60
2022-09-23T14:29:49.725Z,13.32
2022-09-23T14:32:23.339Z,13.36
2022-09-23T14:35:04.633Z,13.13
2022-09-23T14:38:02.494Z,13.32
2022-09-23T14:40:36.167Z,13.28
2022-09-23T14:43:18.465Z,13.43
2022-09-23T14:45:50.713Z,13.22
2022-09-23T14:48:23.271Z,13.05
2022-09-23T14:50:54.798Z,13.18
2022-09-23T14:53:24.518Z,13.44
2022-09-23T14:56:07.362Z,13.49
2022-09-23T14:58:54.299Z,13.45
2022-09-23T15:01:33.548Z,13.40
2022-09-23T15:04:09.500Z,13.49
2022-09-23T15:06:43.143Z,13.39
2022-09-23T15:09:17.058Z,13.13
2022-09-23T15:11:44.177Z,13.15
2022-09-23T15:14:36.210Z,13.17
2022-09-23T15:17:01.475Z,13.28
2022-09-23T15:19:30.227Z,12.88
2022-09-23T15:21:57.406Z,12.73
2022-09-23T15:24:33.454Z,12.78
2022-09-23T15:27:00.532Z,12.71
2022-09-23T15:29:27.605Z,12.56
2022-09-23T15:31:55.600Z,12.74
2022-09-23T15:34:22.653Z,12.53
2022-09-23T15:36:49.755Z,12.83
2022-09-23T15:39:17.119Z,12.78
2022-09-23T15:41:51.584Z,12.35
2022-09-23T15:44:21.774Z,12.58
2022-09-23T15:46:52.096Z,12.72
2022-09-23T15:49:33.880Z,12.71
2022-09-23T15:52:01.601Z,12.67
2022-09-23T15:54:29.329Z,12.62
2022-09-23T15:57:00.574Z,12.56
2022-09-23T15:59:28.798Z,12.50
2022-09-23T16:01:57.121Z,12.57
2022-09-23T16:04:25.668Z,12.54
2022-09-23T16:06:53.373Z,12.53
2022-09-23T16:09:20.311Z,12.40
2022-09-23T16:11:49.807Z,12.34
2022-09-23T16:14:18.533Z,12.56
2022-09-23T16:16:47.995Z,12.43
2022-09-23T16:19:17.725Z,12.32
2022-09-23T16:21:45.226Z,12.60
2022-09-23T16:24:17.699Z,12.52
2022-09-23T16:26:46.689Z,12.40
2022-09-23T16:29:14.464Z,12.09
2022-09-23T16:31:41.676Z,12.17
2022-09-23T16:34:08.872Z,12.16
2022-09-23T16:36:41.963Z,12.07
2022-09-23T16:39:12.497Z,12.20
2022-09-23T16:41:40.434Z,12.09
2022-09-23T16:44:09.468Z,11.83
2022-09-23T16:46:36.800Z,11.93
2022-09-23T16:49:04.077Z,11.95
2022-09-23T16:51:38.484Z,11.69
2022-09-23T16:54:13.347Z,11.39
2022-09-23T16:56:46.506Z,11.83
2022-09-23T16:59:14.788Z,11.59
2022-09-23T17:02:01.292Z,11.34
2022-09-23T17:04:28.468Z,11.54
2022-09-23T17:06:56.501Z,11.41
2022-09-23T17:09:26.122Z,11.51
2022-09-23T17:12:01.250Z,11.52
2022-09-23T17:14:29.979Z,11.32
2022-09-23T17:16:59.040Z,11.18
2022-09-23T17:19:26.146Z,11.16
2022-09-23T17:21:54.092Z,11.34
2022-09-23T17:24:21.215Z,11.34
2022-09-23T17:26:52.592Z,11.13
2022-09-23T17:29:20.229Z,11.18
2022-09-23T17:31:47.283Z,11.16
2022-09-23T17:34:14.388Z,10.86
2022-09-23T17:36:41.439Z,11.16
2022-09-23T17:39:08.550Z,11.13
2022-09-23T17:41:35.494Z,10.90
2022-09-23T17:44:02.697Z,10.78
2022-09-23T17:46:30.287Z,11.06
2022-09-23T17:48:58.031Z,11.04
2022-09-23T17:51:25.676Z,10.93
2022-09-23T17:53:52.769Z,10.81
2022-09-23T17:56:22.313Z,10.91
2022-09-23T17:58:50.445Z,10.91
2022-09-23T18:01:19.409Z,10.86
2022-09-23T18:03:47.466Z,10.68
2022-09-23T18:06:17.692Z,10.84
2022-09-23T18:08:46.799Z,10.71
2022-09-23T18:11:22.769Z,10.79
2022-09-23T18:13:55.271Z,10.70
2022-09-23T18:16:25.420Z,10.52
2022-09-23T18:18:57.666Z,10.80
2022-09-23T18:21:26.933Z,10.77
2022-09-23T18:23:55.651Z,10.84
2022-09-23T18:26:30.049Z,10.86
2022-09-23T18:29:01.532Z,10.86
2022-09-23T18:31:29.843Z,10.91
2022-09-23T18:33:58.361Z,10.64
2022-09-23T18:36:25.369Z,10.65
2022-09-23T18:38:52.422Z,10.64
2022-09-23T18:41:19.991Z,10.83
2022-09-23T18:43:48.727Z,10.65
2022-09-23T18:46:24.046Z,10.68
2022-09-23T18:49:10.378Z,10.86
2022-09-23T18:51:46.757Z,10.24
2022-09-23T18:54:13.752Z,10.74
2022-09-23T18:56:42.576Z,10.69
2022-09-23T18:59:14.585Z,10.86
2022-09-23T19:01:41.723Z,10.87
2022-09-23T19:04:08.850Z,10.89
2022-09-23T19:06:37.495Z,10.91
2022-09-23T19:09:07.153Z,10.60
2022-09-23T19:11:36.430Z,10.59
2022-09-23T19:14:06.512Z,10.56
2022-09-23T19:16:35.164Z,10.91
2022-09-23T19:19:04.141Z,10.63
2022-09-23T19:21:31.917Z,10.86
2022-09-23T19:24:04.921Z,10.66
2022-09-23T19:26:37.797Z,10.81
2022-09-23T19:29:06.344Z,10.83
2022-09-23T19:31:35.690Z,10.44
2022-09-23T19:34:10.809Z,10.86
2022-09-23T19:36:40.197Z,10.83
2022-09-23T19:39:18.745Z,10.63
2022-09-23T19:41:46.565Z,10.78
2022-09-23T19:44:14.532Z,10.78
2022-09-23T19:46:45.355Z,10.80
2022-09-23T19:49:13.314Z,10.78
2022-09-23T19:51:40.318Z,10.77
2022-09-23T19:54:09.240Z,10.80
2022-09-23T19:56:37.685Z,10.54
2022-09-23T19:59:07.351Z,10.75
2022-09-23T20:01:34.685Z,10.61
2022-09-23T20:04:02.362Z,10.63
2022-09-23T20:06:31.213Z,10.82
2022-09-23T20:09:02.158Z,10.53
2022-09-23T20:11:29.509Z,10.60
2022-09-23T20:14:00.817Z,10.92
2022-09-23T20:16:32.479Z,10.84
2022-09-23T20:19:00.788Z,10.53
2022-09-23T20:21:29.445Z,10.82
2022-09-23T20:23:57.447Z,10.66
2022-09-23T20:26:43.420Z,10.72
2022-09-23T20:29:11.344Z,10.31
2022-09-23T20:31:40.668Z,10.44
2022-09-23T20:34:10.909Z,10.63
2022-09-23T20:36:41.801Z,10.69
2022-09-23T20:39:10.473Z,10.48
2022-09-23T20:41:39.490Z,10.60
2022-09-23T20:44:13.040Z,10.50
2022-09-23T20:46:46.995Z,10.36
2022-09-23T20:49:17.013Z,10.44
2022-09-23T20:51:44.115Z,10.36
2022-09-23T20:54:12.296Z,10.55
2022-09-23T20:56:39.565Z,10.21
2022-09-23T20:59:06.710Z,10.50
2022-09-23T21:01:35.643Z,10.43
2022-09-23T21:04:05.031Z,10.52
2022-09-23T21:06:33.855Z,10.55
2022-09-23T21:09:00.953Z,10.50
2022-09-23T21:11:28.223Z,10.46
2022-09-23T21:13:55.222Z,10.20
2022-09-23T21:16:23.143Z,10.35
2022-09-23T21:18:51.695Z,10.11
2022-09-23T21:21:20.211Z,10.26
2022-09-23T21:23:47.913Z,10.11
2022-09-23T21:26:14.766Z,10.21
2022-09-23T21:28:44.035Z,10.18
2022-09-23T21:31:22.686Z,10.12
2022-09-23T21:33:57.163Z,10.07
2022-09-23T21:36:24.925Z,9.94
2022-09-23T21:38:52.448Z,10.02
2022-09-23T21:41:20.178Z,9.88
2022-09-23T21:43:49.601Z,10.02
2022-09-23T21:46:22.029Z,9.67
2022-09-23T21:48:53.351Z,9.89
2022-09-23T21:51:23.340Z,9.81
2022-09-23T21:53:50.640Z,9.50
2022-09-23T21:56:28.949Z,9.84
2022-09-23T21:58:57.762Z,9.77
2022-09-23T22:01:27.294Z,9.67
2022-09-23T22:03:55.430Z,9.59
2022-09-23T22:06:27.602Z,9.70
2022-09-23T22:09:00.014Z,9.64
2022-09-23T22:11:48.185Z,9.59
2022-09-23T22:14:16.533Z,9.54
2022-09-23T22:16:44.158Z,9.12
2022-09-23T22:19:13.770Z,9.36
2022-09-23T22:21:43.270Z,8.88
2022-09-23T22:24:11.623Z,8.86
2022-09-23T22:26:44.030Z,8.86
2022-09-23T22:29:32.640Z,8.98
2022-09-23T22:32:19.627Z,8.94
2022-09-23T22:34:50.615Z,8.75
2022-09-23T22:37:21.405Z,8.75
2022-09-23T22:39:48.381Z,8.72
2022-09-23T22:42:15.629Z,8.79
2022-09-23T22:44:42.580Z,8.95
2022-09-23T22:47:10.208Z,8.96
2022-09-23T22:49:37.130Z,8.84
2022-09-23T22:52:08.052Z,8.94
2022-09-23T22:54:35.791Z,8.96
2022-09-23T22:57:07.474Z,8.95
2022-09-23T22:59:35.502Z,8.95
2022-09-23T23:02:03.086Z,8.76
2022-09-23T23:04:30.627Z,8.82
2022-09-23T23:06:58.955Z,8.52
2022-09-23T23:09:26.418Z,8.69
2022-09-23T23:11:53.343Z,8.88
2022-09-23T23:14:20.704Z,8.59
2022-09-23T23:16:47.619Z,8.86
2022-09-23T23:19:17.438Z,8.69
2022-09-23T23:21:45.720Z,8.86
2022-09-23T23:24:23.868Z,8.52
2022-09-23T23:26:52.445Z,8.85
2022-09-23T23:29:21.246Z,8.53
2022-09-23T23:31:49.094Z,8.59
2022-09-23T23:34:20.580Z,8.73
2022-09-23T23:36:53.634Z,8.79
2022-09-23T23:39:23.689Z,8.61
2022-09-23T23:41:55.229Z,8.53
2022-09-23T23:44:23.947Z,8.72
2022-09-23T23:46:51.339Z,8.67
2022-09-23T23:49:18.360Z,8.43
2022-09-23T23:51:45.617Z,8.33
2022-09-23T23:54:12.905Z,8.62
2022-09-23T23:56:39.903Z,8.29
2022-09-23T23:59:06.900Z,8.56
